Sligo Airport - TAF
(Terminal Area Forecast)

Issued at 02:51 UTC on Mon. 18-Dec-17

--- METARS(SA) ---

METAR EISG(SLIGO) 180230Z AUTO VRB02KT 9000 NSC 03/02 Q1025 =

--- TAFS() ---

TAF EISG(SLIGO) 180200Z 1803/1812 22005KT 8000 FEW020 SCT050 TEMPO

1803/1812 3000 BR BECMG 1803/1806 16007KT =

--- SIGMETS(WS) ---

IE - No VALID SIGMETS/Warnings FOR THIS AREA

--- SIGMETS Volcanic(WV) ---

IE - No VALID SIGMETS/Warnings FOR THIS AREA

--- SIGMETS(WS) ---

UK - No VALID SIGMETS/Warnings FOR THIS AREA

Sligo Airport - METARs

Latest METARs for Sligo and Donegal Airports - updated every 30 mins